createdAt,value
2023-03-11T00:00:58.105Z,50.875320
2023-03-11T00:01:58.092Z,50.875320
2023-03-11T03:38:47.823Z,50.875381
2023-03-11T03:39:47.799Z,50.875431
2023-03-11T03:40:47.780Z,50.875443
2023-03-11T03:41:47.828Z,50.875603
2023-03-11T03:42:47.776Z,50.874992
2023-03-11T03:43:47.749Z,50.874992
2023-03-11T03:44:47.747Z,50.874992
2023-03-11T03:45:47.779Z,50.874992
2023-03-11T03:46:47.731Z,50.874992
2023-03-11T03:47:47.691Z,50.874992
2023-03-11T03:48:47.729Z,50.874992
2023-03-11T03:49:47.715Z,50.874992
2023-03-11T03:50:47.703Z,50.874992
2023-03-11T03:51:47.649Z,50.874992
2023-03-11T03:52:47.675Z,50.874992
2023-03-11T03:53:47.667Z,50.874992
2023-03-11T03:54:47.665Z,50.874992
2023-03-11T03:55:47.649Z,50.874992
2023-03-11T03:56:47.645Z,50.874992
2023-03-11T03:57:47.602Z,50.874992
2023-03-11T03:58:47.626Z,50.874992
2023-03-11T03:59:47.585Z,50.874992
2023-03-11T04:00:47.586Z,50.874992
2023-03-11T04:01:47.589Z,50.874992
2023-03-11T04:02:47.580Z,50.874992
2023-03-11T04:03:47.631Z,50.874992
2023-03-11T04:04:47.552Z,50.874992
2023-03-11T04:05:47.519Z,50.874992
2023-03-11T04:06:47.526Z,50.874992
2023-03-11T04:07:47.532Z,50.874992
2023-03-11T04:08:47.556Z,50.874992
2023-03-11T04:09:47.484Z,50.874992
2023-03-11T04:10:47.483Z,50.874992
2023-03-11T04:11:47.489Z,50.874992
2023-03-11T04:12:47.466Z,50.874992
2023-03-11T04:13:47.494Z,50.874992
2023-03-11T04:14:47.474Z,50.874992
2023-03-11T04:15:47.436Z,50.874992
2023-03-11T04:16:47.464Z,50.874992
2023-03-11T04:17:47.432Z,50.874992
2023-03-11T04:18:47.445Z,50.874992
2023-03-11T04:19:47.405Z,50.874992
2023-03-11T04:20:47.382Z,50.874992
2023-03-11T04:21:47.378Z,50.874992
2023-03-11T04:22:47.375Z,50.874992
2023-03-11T04:23:47.379Z,50.874992
2023-03-11T04:24:47.332Z,50.874992
2023-03-11T04:25:47.336Z,50.874992
2023-03-11T04:26:47.334Z,50.874992
2023-03-11T04:27:47.326Z,50.874992
2023-03-11T04:28:47.326Z,50.874992
2023-03-11T04:29:47.301Z,50.874992
2023-03-11T04:30:47.346Z,50.874992
2023-03-11T04:31:47.292Z,50.874992
2023-03-11T04:32:47.323Z,50.874992
2023-03-11T04:33:47.269Z,50.874992
2023-03-11T04:34:47.242Z,50.874992
2023-03-11T04:35:47.250Z,50.874992
2023-03-11T04:36:47.226Z,50.874992
2023-03-11T04:37:47.208Z,50.874992
2023-03-11T04:38:47.204Z,50.874992
2023-03-11T04:39:47.187Z,50.874992
2023-03-11T04:40:47.184Z,50.874992
2023-03-11T04:41:47.179Z,50.874992
2023-03-11T04:42:47.188Z,50.874992
2023-03-11T04:43:47.169Z,50.874992
2023-03-11T04:44:47.127Z,50.874992
2023-03-11T04:45:48.152Z,50.874992
2023-03-11T04:46:47.127Z,50.874992
2023-03-11T04:47:47.120Z,50.874992
2023-03-11T04:48:47.114Z,50.874992
2023-03-11T04:49:47.097Z,50.874992
2023-03-11T04:50:47.123Z,50.874992
2023-03-11T04:51:47.105Z,50.874992
2023-03-11T04:52:47.077Z,50.874992
2023-03-11T04:53:47.063Z,50.874992
2023-03-11T04:54:47.082Z,50.874992
2023-03-11T04:55:47.061Z,50.874992
2023-03-11T04:56:47.035Z,50.874992
2023-03-11T04:57:47.024Z,50.874992
2023-03-11T04:58:47.015Z,50.874992
2023-03-11T04:59:46.989Z,50.874992
2023-03-11T05:00:46.996Z,50.874992
2023-03-11T05:01:46.989Z,50.874992
2023-03-11T05:02:46.966Z,50.874992
2023-03-11T05:03:46.976Z,50.874992
2023-03-11T05:04:46.980Z,50.874992
2023-03-11T05:05:46.930Z,50.874992
2023-03-11T05:06:46.919Z,50.874992
2023-03-11T05:07:46.927Z,50.874992
2023-03-11T05:08:46.933Z,50.874992
2023-03-11T05:09:46.902Z,50.874992
2023-03-11T05:10:46.886Z,50.874992
2023-03-11T05:11:46.875Z,50.874992
2023-03-11T05:12:46.861Z,50.874992
2023-03-11T05:13:46.871Z,50.874992
2023-03-11T05:14:46.837Z,50.874992
2023-03-11T05:15:46.868Z,50.874992
2023-03-11T05:16:46.825Z,50.874992
2023-03-11T05:17:46.860Z,50.874992
2023-03-11T05:18:46.837Z,50.874992
2023-03-11T05:19:46.799Z,50.874992
2023-03-11T05:20:46.793Z,50.874992
2023-03-11T05:21:46.776Z,50.874992
2023-03-11T05:22:46.783Z,50.874992
2023-03-11T05:23:46.769Z,50.874992
2023-03-11T05:24:46.786Z,50.874992
2023-03-11T05:25:46.747Z,50.874992
2023-03-11T05:26:48.522Z,50.874992
2023-03-11T05:27:47.725Z,50.874992
2023-03-11T05:28:46.708Z,50.874992
2023-03-11T05:29:46.729Z,50.874992
2023-03-11T05:30:46.684Z,50.874992
2023-03-11T05:31:46.668Z,50.874992
2023-03-11T05:32:46.683Z,50.874992
2023-03-11T05:33:46.672Z,50.874992
2023-03-11T05:34:46.665Z,50.874992
2023-03-11T05:35:46.636Z,50.874992
2023-03-11T05:36:46.621Z,50.874992
2023-03-11T05:37:46.634Z,50.874992
2023-03-11T05:38:46.610Z,50.874992
2023-03-11T05:39:46.594Z,50.874992
2023-03-11T05:40:46.570Z,50.874992
2023-03-11T05:41:46.566Z,50.874992
2023-03-11T05:42:46.556Z,50.874992
2023-03-11T05:43:46.560Z,50.874992
2023-03-11T05:44:46.560Z,50.874992
2023-03-11T05:45:46.507Z,50.874992
2023-03-11T05:46:46.590Z,50.874992
2023-03-11T05:47:46.492Z,50.874992
2023-03-11T05:48:46.513Z,50.874992
2023-03-11T05:49:46.481Z,50.874992
2023-03-11T05:50:46.477Z,50.874992
2023-03-11T05:51:46.461Z,50.874992
2023-03-11T05:52:46.455Z,50.874992
2023-03-11T05:53:46.466Z,50.874992
2023-03-11T05:54:46.433Z,50.874992
2023-03-11T05:55:46.418Z,50.874992
2023-03-11T05:56:46.417Z,50.874992
2023-03-11T05:57:46.402Z,50.874992
2023-03-11T05:58:46.417Z,50.874992
2023-03-11T05:59:46.389Z,50.874992
2023-03-11T06:00:46.383Z,50.874992
2023-03-11T06:01:46.393Z,50.874992
2023-03-11T06:02:46.359Z,50.874992
2023-03-11T06:03:46.524Z,50.874992
2023-03-11T06:04:46.476Z,50.874992
2023-03-11T06:05:46.340Z,50.874992
2023-03-11T06:06:46.318Z,50.874992
2023-03-11T06:07:46.314Z,50.874992
2023-03-11T06:08:46.292Z,50.874992
2023-03-11T06:09:46.302Z,50.874992
2023-03-11T06:10:48.554Z,50.874992
2023-03-11T06:11:47.252Z,50.874992
2023-03-11T06:12:46.253Z,50.874992
2023-03-11T06:13:46.236Z,50.874992
2023-03-11T06:14:46.251Z,50.874992
2023-03-11T06:15:46.238Z,50.874992
2023-03-11T06:16:46.227Z,50.874992
2023-03-11T06:17:46.211Z,50.874992
2023-03-11T06:18:46.207Z,50.874992
2023-03-11T06:19:46.187Z,50.874992
2023-03-11T06:20:46.165Z,50.874992
2023-03-11T06:21:46.159Z,50.874992
2023-03-11T06:22:46.159Z,50.874992
2023-03-11T06:23:46.147Z,50.874992
2023-03-11T06:24:46.137Z,50.874992
2023-03-11T06:25:46.197Z,50.874992
2023-03-11T06:26:46.112Z,50.874992
2023-03-11T06:27:46.117Z,50.874992
2023-03-11T06:28:46.081Z,50.874992
2023-03-11T06:29:48.354Z,50.874992
2023-03-11T06:30:46.104Z,50.874992
2023-03-11T06:31:46.098Z,50.874992
2023-03-11T06:32:46.080Z,50.874992
2023-03-11T06:33:46.038Z,50.874992
2023-03-11T06:34:46.034Z,50.874992
2023-03-11T06:35:46.038Z,50.874992
2023-03-11T06:36:46.018Z,50.874992
2023-03-11T06:37:45.998Z,50.874992
2023-03-11T06:38:45.989Z,50.874992
2023-03-11T06:39:45.993Z,50.874992
2023-03-11T06:40:45.987Z,50.874992
2023-03-11T06:41:45.949Z,50.874992
2023-03-11T06:42:45.966Z,50.874992
2023-03-11T06:43:45.965Z,50.874992
2023-03-11T06:44:45.959Z,50.874992
2023-03-11T06:45:45.979Z,50.874992
2023-03-11T06:46:45.909Z,50.874992
2023-03-11T06:47:46.885Z,50.874992
2023-03-11T06:48:45.884Z,50.874992
2023-03-11T06:49:45.886Z,50.874992
2023-03-11T06:50:48.422Z,50.874992
2023-03-11T06:51:46.852Z,50.874992
2023-03-11T06:52:45.857Z,50.874992
2023-03-11T06:53:45.820Z,50.874992
2023-03-11T06:54:45.828Z,50.874992
2023-03-11T06:55:45.830Z,50.874992
2023-03-11T06:56:45.801Z,50.874992
2023-03-11T06:57:45.795Z,50.874992
2023-03-11T06:58:45.797Z,50.874992
2023-03-11T06:59:45.787Z,50.874992
2023-03-11T07:00:45.811Z,50.874992
2023-03-11T07:01:45.758Z,50.874992
2023-03-11T07:02:45.746Z,50.874992
2023-03-11T07:03:45.725Z,50.874992
2023-03-11T07:04:45.734Z,50.874992
2023-03-11T07:05:45.719Z,50.874992
2023-03-11T07:06:45.689Z,50.874992
2023-03-11T07:07:45.697Z,50.874992
2023-03-11T07:08:45.680Z,50.874992
2023-03-11T07:09:45.682Z,50.874992
2023-03-11T07:10:45.637Z,50.874992
2023-03-11T07:11:45.630Z,50.874992
2023-03-11T07:12:45.612Z,50.874992
2023-03-11T07:13:46.613Z,50.874992
2023-03-11T07:14:45.610Z,50.874992
2023-03-11T07:15:45.593Z,50.874992
2023-03-11T07:16:45.601Z,50.874992
2023-03-11T07:17:45.566Z,50.874992
2023-03-11T07:18:45.563Z,50.874992
2023-03-11T07:19:45.564Z,50.874992
2023-03-11T07:20:45.545Z,50.874992
2023-03-11T07:21:45.532Z,50.874992
2023-03-11T07:22:45.524Z,50.874992
2023-03-11T07:23:45.512Z,50.874992
2023-03-11T07:24:45.510Z,50.874992
2023-03-11T07:25:45.493Z,50.874992
2023-03-11T07:26:45.489Z,50.874992
2023-03-11T07:27:45.475Z,50.874992
2023-03-11T07:28:45.489Z,50.874992
2023-03-11T07:29:45.497Z,50.874992
2023-03-11T07:30:45.443Z,50.874992
2023-03-11T07:31:45.536Z,50.874992
2023-03-11T07:32:45.444Z,50.874992
2023-03-11T07:33:45.408Z,50.874992
2023-03-11T07:34:45.428Z,50.874992
2023-03-11T07:35:45.440Z,50.874992
2023-03-11T07:36:45.443Z,50.874992
2023-03-11T07:37:45.369Z,50.874992
2023-03-11T07:38:45.369Z,50.874992
2023-03-11T07:39:45.362Z,50.874992
2023-03-11T07:40:45.341Z,50.874992
2023-03-11T07:41:45.334Z,50.874992
2023-03-11T07:42:45.326Z,50.874992
2023-03-11T07:43:45.311Z,50.874992
2023-03-11T07:44:45.308Z,50.874992
2023-03-11T07:45:45.349Z,50.874992
2023-03-11T07:46:45.270Z,50.874992
2023-03-11T07:47:45.320Z,50.874992
2023-03-11T07:48:45.259Z,50.874992
2023-03-11T07:49:45.276Z,50.874992
2023-03-11T07:50:45.305Z,50.875614
2023-03-11T07:51:45.249Z,50.875420
2023-03-11T07:52:45.266Z,50.875370
2023-03-11T07:53:45.255Z,50.875462
2023-03-11T07:54:45.241Z,50.875416
2023-03-11T07:55:45.202Z,50.875286
2023-03-11T07:56:45.214Z,50.875385
2023-03-11T07:57:45.190Z,50.875465
2023-03-11T07:58:45.910Z,50.875591
2023-03-11T07:59:46.185Z,50.875713
2023-03-11T08:00:45.170Z,50.875713
2023-03-11T08:01:45.145Z,50.875713
2023-03-11T08:02:45.199Z,50.875713
2023-03-11T08:03:45.200Z,50.875713
2023-03-11T08:04:45.131Z,50.875713
2023-03-11T08:05:45.120Z,50.875713
2023-03-11T08:06:45.108Z,50.875713
2023-03-11T08:07:45.096Z,50.875713
2023-03-11T08:08:45.070Z,50.875713
2023-03-11T08:09:45.055Z,50.875713
2023-03-11T08:10:45.044Z,50.875713
2023-03-11T08:11:45.028Z,50.875713
2023-03-11T08:12:45.060Z,50.875713
2023-03-11T08:13:45.073Z,50.875713
2023-03-11T08:14:45.050Z,50.875713
2023-03-11T08:15:45.031Z,50.875713
2023-03-11T08:16:45.017Z,50.875713
2023-03-11T08:17:44.965Z,50.875713
2023-03-11T08:18:44.973Z,50.875713
2023-03-11T08:19:44.969Z,50.875713
2023-03-11T08:20:44.946Z,50.875713
2023-03-11T08:21:44.933Z,50.875713
2023-03-11T08:22:57.321Z,50.875713
2023-03-11T08:23:46.928Z,50.875713
2023-03-11T08:24:44.927Z,50.875713
2023-03-11T08:25:44.907Z,50.875713
2023-03-11T08:26:44.896Z,50.875713
2023-03-11T08:27:44.878Z,50.875713
2023-03-11T08:28:44.864Z,50.875713
2023-03-11T08:29:44.868Z,50.875713
2023-03-11T08:30:44.880Z,50.875713
2023-03-11T08:31:44.846Z,50.875713
2023-03-11T08:32:44.870Z,50.875713
2023-03-11T08:33:44.821Z,50.875713
2023-03-11T08:34:44.866Z,50.875713
2023-03-11T08:35:44.821Z,50.875713
2023-03-11T08:36:44.788Z,50.875713
2023-03-11T08:37:44.783Z,50.875713
2023-03-11T08:38:44.806Z,50.875713
2023-03-11T08:39:44.813Z,50.875713
2023-03-11T08:40:44.754Z,50.875713
2023-03-11T08:41:44.751Z,50.875713
2023-03-11T08:42:44.751Z,50.875713
2023-03-11T08:43:44.752Z,50.875488
2023-03-11T08:44:45.730Z,50.875805
2023-03-11T08:45:44.699Z,50.875423
2023-03-11T08:46:44.757Z,50.875423
2023-03-11T08:47:44.676Z,50.875423
2023-03-11T08:48:44.682Z,50.875385
2023-03-11T08:49:44.658Z,50.875385
2023-03-11T08:50:54.009Z,50.875385
2023-03-11T08:51:46.649Z,50.875385
2023-03-11T08:52:44.627Z,50.875385
2023-03-11T08:53:44.625Z,50.875385
2023-03-11T08:54:44.607Z,50.875385
2023-03-11T08:55:44.614Z,50.875385
2023-03-11T08:56:44.639Z,50.875385
2023-03-11T08:57:44.594Z,50.875385
2023-03-11T08:58:44.569Z,50.875385
2023-03-11T08:59:44.569Z,50.875385
2023-03-11T09:00:44.571Z,50.875385
2023-03-11T09:01:44.559Z,50.875385
2023-03-11T09:02:44.587Z,50.875496
2023-03-11T09:03:44.561Z,50.875496
2023-03-11T09:04:44.542Z,50.876488
2023-03-11T09:05:44.576Z,50.876488
2023-03-11T09:06:44.510Z,50.876488
2023-03-11T09:07:44.486Z,50.876488
2023-03-11T09:08:44.480Z,50.876488
2023-03-11T09:09:44.466Z,50.876488
2023-03-11T09:10:44.474Z,50.875607
2023-03-11T09:11:44.449Z,50.875774
2023-03-11T09:12:44.440Z,50.875477
2023-03-11T09:13:44.418Z,50.875553
2023-03-11T09:14:44.412Z,50.875565
2023-03-11T09:15:44.416Z,50.875526
2023-03-11T09:16:44.398Z,50.875446
2023-03-11T09:17:44.390Z,50.875423
2023-03-11T09:18:44.377Z,50.875515
2023-03-11T09:19:44.386Z,50.875496
2023-03-11T09:20:44.372Z,50.875961
2023-03-11T09:21:44.353Z,50.876289
2023-03-11T09:22:44.345Z,50.880089
2023-03-11T09:23:44.757Z,50.880089
2023-03-11T09:24:45.325Z,50.880089
2023-03-11T09:25:44.328Z,50.880089
2023-03-11T09:26:44.316Z,50.880089
2023-03-11T09:27:44.304Z,50.880089
2023-03-11T09:28:44.299Z,50.880089
2023-03-11T09:29:44.279Z,50.880089
2023-03-11T09:30:44.273Z,50.880089
2023-03-11T09:31:44.283Z,50.880089
2023-03-11T09:32:44.337Z,50.880089
2023-03-11T09:33:44.245Z,50.880089
2023-03-11T09:34:44.227Z,50.880089
2023-03-11T09:35:44.240Z,50.880089
2023-03-11T09:36:44.209Z,50.880089
2023-03-11T09:37:44.205Z,50.880089
2023-03-11T09:38:44.196Z,50.880089
2023-03-11T09:39:44.193Z,50.880089
2023-03-11T09:40:46.888Z,50.880089
2023-03-11T09:41:57.193Z,50.880089
2023-03-11T09:42:46.166Z,50.880089
2023-03-11T09:43:44.138Z,50.880089
2023-03-11T09:44:44.129Z,50.880089
2023-03-11T09:45:44.133Z,50.880089
2023-03-11T09:46:44.142Z,50.880089
2023-03-11T09:47:44.122Z,50.880089
2023-03-11T09:48:44.086Z,50.880089
2023-03-11T09:49:44.081Z,50.880089
2023-03-11T09:50:44.087Z,50.880089
2023-03-11T09:51:44.064Z,50.880089
2023-03-11T09:52:44.057Z,50.880089
2023-03-11T09:53:44.037Z,50.880089
2023-03-11T09:54:45.041Z,50.880089
2023-03-11T09:55:44.032Z,50.880089
2023-03-11T09:56:44.601Z,50.880089
2023-03-11T09:57:44.998Z,50.880089
2023-03-11T09:58:43.992Z,50.880089
2023-03-11T09:59:44.744Z,50.880089
2023-03-11T10:00:44.004Z,50.880089
2023-03-11T10:01:44.046Z,50.880089
2023-03-11T10:02:44.117Z,50.880089
2023-03-11T10:03:43.977Z,50.880089
2023-03-11T10:04:43.942Z,50.880089
2023-03-11T10:05:43.952Z,50.880089
2023-03-11T10:06:43.947Z,50.880089
2023-03-11T10:07:43.929Z,50.880089
2023-03-11T10:08:43.898Z,50.880089
2023-03-11T10:09:43.938Z,50.880089
2023-03-11T10:10:43.909Z,50.880089
2023-03-11T10:11:43.894Z,50.880089
2023-03-11T10:12:43.889Z,50.880089
2023-03-11T10:13:43.887Z,50.880089
2023-03-11T10:14:43.923Z,50.880089
2023-03-11T10:15:43.872Z,50.880089
2023-03-11T10:16:43.929Z,50.880089
2023-03-11T10:17:43.844Z,50.880089
2023-03-11T10:18:43.877Z,50.880089
2023-03-11T10:19:43.841Z,50.880089
2023-03-11T10:20:43.827Z,50.880089
2023-03-11T10:21:43.816Z,50.880089
2023-03-11T10:22:58.774Z,50.880089
2023-03-11T10:23:44.821Z,50.880089
2023-03-11T10:24:43.790Z,50.880089
2023-03-11T10:25:43.820Z,50.880089
2023-03-11T10:26:43.778Z,50.880089
2023-03-11T10:27:43.754Z,50.880089
2023-03-11T10:28:43.768Z,50.880089
2023-03-11T10:29:43.751Z,50.880089
2023-03-11T10:30:43.724Z,50.880089
2023-03-11T10:31:43.764Z,50.880089
2023-03-11T10:32:43.819Z,50.880089
2023-03-11T10:33:45.856Z,50.880089
2023-03-11T10:34:43.693Z,50.880089
2023-03-11T10:35:43.709Z,50.880089
2023-03-11T10:36:43.671Z,50.880089
2023-03-11T10:37:49.860Z,50.880089
2023-03-11T10:38:45.643Z,50.880089
2023-03-11T10:39:43.655Z,50.880089
2023-03-11T10:40:43.671Z,50.880089
2023-03-11T10:41:43.613Z,50.880089
2023-03-11T10:42:43.638Z,50.880089
2023-03-11T10:43:43.626Z,50.880089
2023-03-11T10:44:43.617Z,50.875309
2023-03-11T10:45:43.577Z,50.875385
2023-03-11T10:46:43.656Z,50.875324
2023-03-11T10:47:43.604Z,50.875347
2023-03-11T10:48:43.572Z,50.875366
2023-03-11T10:49:43.535Z,50.875366
2023-03-11T10:50:43.532Z,50.875290
2023-03-11T10:51:43.530Z,50.875420
2023-03-11T10:52:43.491Z,50.875420
2023-03-11T10:53:43.501Z,50.875332
2023-03-11T10:54:45.246Z,50.875526
2023-03-11T10:55:43.517Z,50.875351
2023-03-11T10:56:43.470Z,50.875282
2023-03-11T10:57:43.487Z,50.875366
2023-03-11T10:58:43.463Z,50.875404
2023-03-11T10:59:43.466Z,50.875450
2023-03-11T11:00:43.452Z,50.875427
2023-03-11T11:01:43.482Z,50.875370
2023-03-11T11:02:43.894Z,50.875412
2023-03-11T11:03:44.414Z,50.875362
2023-03-11T11:04:43.382Z,50.875465
2023-03-11T11:05:43.369Z,50.875473
2023-03-11T11:06:43.417Z,50.875519
2023-03-11T11:07:43.374Z,50.875507
2023-03-11T11:08:43.351Z,50.875862
2023-03-11T11:09:43.325Z,50.875324
2023-03-11T11:10:43.313Z,50.875332
2023-03-11T11:11:43.329Z,50.875481
2023-03-11T11:12:43.339Z,50.875504
2023-03-11T11:13:43.289Z,50.875420
2023-03-11T11:14:43.306Z,50.875515
2023-03-11T11:15:43.272Z,50.875484
2023-03-11T11:16:43.272Z,50.875587
2023-03-11T11:17:43.229Z,50.875240
2023-03-11T11:18:43.233Z,50.875477
2023-03-11T11:19:43.207Z,50.875095
2023-03-11T11:20:43.194Z,50.875195
2023-03-11T11:21:43.203Z,50.875172
2023-03-11T11:22:43.183Z,50.873524
2023-03-11T11:23:43.200Z,50.869568
2023-03-11T11:24:43.155Z,50.866463
2023-03-11T11:25:43.148Z,50.866463
2023-03-11T11:26:43.138Z,50.866463
2023-03-11T11:27:43.113Z,50.866463
2023-03-11T11:28:43.118Z,50.873512
2023-03-11T11:29:43.141Z,50.874096
2023-03-11T11:30:43.143Z,50.874096
2023-03-11T11:31:43.104Z,50.874096
2023-03-11T11:32:43.092Z,50.874096
2023-03-11T11:33:43.081Z,50.869938
2023-03-11T11:34:43.082Z,50.871761
2023-03-11T11:35:43.085Z,50.868164
2023-03-11T11:36:43.108Z,50.864529
2023-03-11T11:37:43.076Z,50.862949
2023-03-11T11:38:43.027Z,50.876198
2023-03-11T11:39:43.016Z,50.876530
2023-03-11T11:41:00.250Z,50.877712
2023-03-11T11:41:43.041Z,50.878078
2023-03-11T11:42:42.991Z,50.878174
2023-03-11T11:43:43.022Z,50.878109
2023-03-11T11:44:42.968Z,50.877869
2023-03-11T11:45:43.050Z,50.878201
2023-03-11T11:46:42.955Z,50.878502
2023-03-11T11:47:42.930Z,50.878773
2023-03-11T11:48:42.916Z,50.878475
2023-03-11T11:49:42.945Z,50.878517
2023-03-11T11:50:42.911Z,50.878132
2023-03-11T11:51:42.899Z,50.878197
2023-03-11T11:52:45.064Z,50.877949
2023-03-11T11:53:42.897Z,50.878414
2023-03-11T11:54:42.855Z,50.878860
2023-03-11T11:55:42.877Z,50.880035
2023-03-11T11:56:42.827Z,50.881695
2023-03-11T11:57:42.832Z,50.882683
2023-03-11T11:58:42.824Z,50.878086
2023-03-11T11:59:58.045Z,50.878178
2023-03-11T12:00:42.832Z,50.877659
2023-03-11T12:01:42.835Z,50.877659
2023-03-11T12:02:42.796Z,50.877659
2023-03-11T12:03:42.793Z,50.877659
2023-03-11T12:04:42.797Z,50.877659
2023-03-11T12:05:42.884Z,50.877659
2023-03-11T12:06:42.763Z,50.877659
2023-03-11T12:07:42.734Z,50.877659
2023-03-11T12:08:42.751Z,50.877659
2023-03-11T12:09:42.762Z,50.877659
2023-03-11T12:10:42.705Z,50.877659
2023-03-11T12:11:42.697Z,50.877659
2023-03-11T12:12:42.706Z,50.877659
2023-03-11T12:13:42.746Z,50.877659
2023-03-11T12:14:42.661Z,50.877659
2023-03-11T12:15:42.697Z,50.877659
2023-03-11T12:16:42.646Z,50.877659
2023-03-11T12:17:42.653Z,50.877659
2023-03-11T12:18:42.644Z,50.877659
2023-03-11T12:19:42.601Z,50.877659
2023-03-11T12:20:42.661Z,50.877659
2023-03-11T12:21:42.617Z,50.877659
2023-03-11T12:22:42.600Z,50.877659
2023-03-11T12:23:42.595Z,50.877659
2023-03-11T12:24:42.571Z,50.879978
2023-03-11T12:25:42.556Z,50.877529
2023-03-11T12:26:42.582Z,50.878120
2023-03-11T12:27:42.605Z,50.877628
2023-03-11T12:28:42.539Z,50.877110
2023-03-11T12:29:43.319Z,50.876865
2023-03-11T12:30:43.523Z,50.876865
2023-03-11T12:31:42.666Z,50.875931
2023-03-11T12:32:42.700Z,50.875893
2023-03-11T12:33:42.624Z,50.875900
2023-03-11T12:34:42.572Z,50.875938
2023-03-11T12:35:42.555Z,50.875870
2023-03-11T12:36:42.496Z,50.875870
2023-03-11T12:37:42.475Z,50.876141
2023-03-11T12:38:43.439Z,50.876141
2023-03-11T12:39:42.477Z,50.876141
2023-03-11T12:40:42.493Z,50.876141
2023-03-11T12:41:42.451Z,50.876141
2023-03-11T12:42:42.450Z,50.876141
2023-03-11T12:43:42.450Z,50.875763
2023-03-11T12:44:42.452Z,50.875771
2023-03-11T12:45:42.480Z,50.875717
2023-03-11T12:46:42.443Z,50.875713
2023-03-11T12:47:42.438Z,50.875683
2023-03-11T12:48:42.428Z,50.875198
2023-03-11T12:49:42.339Z,50.876263
2023-03-11T12:50:42.367Z,50.876396
2023-03-11T12:51:42.369Z,50.875706
2023-03-11T12:52:42.341Z,50.875732
2023-03-11T12:53:42.306Z,50.875607
2023-03-11T12:54:42.348Z,50.875488
2023-03-11T12:55:42.331Z,50.875763
2023-03-11T12:56:42.336Z,50.875488
2023-03-11T12:57:42.303Z,50.875370
2023-03-11T12:58:42.279Z,50.875099
2023-03-11T12:59:42.305Z,50.876213
2023-03-11T13:00:42.277Z,50.875660
2023-03-11T13:01:42.333Z,50.875515
2023-03-11T13:02:42.266Z,50.875423
2023-03-11T13:03:43.053Z,50.875553
2023-03-11T13:04:42.224Z,50.875416
2023-03-11T13:05:42.205Z,50.875446
2023-03-11T13:06:42.200Z,50.875408
2023-03-11T13:07:42.178Z,50.875427
2023-03-11T13:08:42.148Z,50.875546
2023-03-11T13:09:42.147Z,50.875427
2023-03-11T13:10:42.131Z,50.875500
2023-03-11T13:11:42.123Z,50.875362
2023-03-11T13:12:42.152Z,50.875469
2023-03-11T13:13:42.136Z,50.875420
2023-03-11T13:14:42.648Z,50.875359
2023-03-11T13:15:42.137Z,50.875149
2023-03-11T13:16:42.107Z,50.875389
2023-03-11T13:17:42.079Z,50.875484
2023-03-11T13:18:42.066Z,50.875668
2023-03-11T13:19:42.048Z,50.876266
2023-03-11T13:20:42.041Z,50.875832
2023-03-11T13:21:42.003Z,50.875694
2023-03-11T13:22:42.018Z,50.875694
2023-03-11T13:23:41.993Z,50.875694
2023-03-11T13:24:41.985Z,50.875694
2023-03-11T13:25:41.965Z,50.875694
2023-03-11T13:26:41.947Z,50.875584
2023-03-11T13:27:41.996Z,50.875420
2023-03-11T13:28:41.923Z,50.875259
2023-03-11T13:29:41.915Z,50.875374
2023-03-11T13:30:41.912Z,50.875057
2023-03-11T13:31:41.906Z,50.875378
2023-03-11T13:32:41.956Z,50.875305
2023-03-11T13:33:41.851Z,50.875721
2023-03-11T13:34:41.845Z,50.875477
2023-03-11T13:35:41.844Z,50.875450
2023-03-11T13:36:41.827Z,50.875324
2023-03-11T13:37:41.822Z,50.875412
2023-03-11T13:38:41.805Z,50.875465
2023-03-11T13:39:41.801Z,50.875450
2023-03-11T13:40:41.804Z,50.875374
2023-03-11T13:41:41.779Z,50.875347
2023-03-11T13:42:42.078Z,50.875702
2023-03-11T13:43:41.762Z,50.875847
2023-03-11T13:44:41.743Z,50.875523
2023-03-11T13:45:41.785Z,50.876183
2023-03-11T13:46:41.728Z,50.876373
2023-03-11T13:47:41.714Z,50.876019
2023-03-11T13:48:41.711Z,50.875332
2023-03-11T13:49:41.700Z,50.875557
2023-03-11T13:50:41.841Z,50.875401
2023-03-11T13:51:41.674Z,50.875309
2023-03-11T13:52:41.669Z,50.875351
2023-03-11T13:53:41.668Z,50.875694
2023-03-11T13:54:41.648Z,50.875763
2023-03-11T13:55:41.632Z,50.875431
2023-03-11T13:56:41.628Z,50.875576
2023-03-11T13:57:41.611Z,50.875504
2023-03-11T13:58:41.614Z,50.875450
2023-03-11T13:59:41.593Z,50.875412
2023-03-11T14:00:41.687Z,50.875523
2023-03-11T14:01:41.578Z,50.875324
2023-03-11T14:02:41.569Z,50.875023
2023-03-11T14:03:41.621Z,50.875023
2023-03-11T14:04:41.546Z,50.875023
2023-03-11T14:05:41.541Z,50.875519
2023-03-11T14:06:41.528Z,50.875519
2023-03-11T14:07:41.520Z,50.875519
2023-03-11T14:08:41.523Z,50.875519
2023-03-11T14:09:41.504Z,50.875519
2023-03-11T14:10:41.566Z,50.875519
2023-03-11T14:11:41.476Z,50.875519
2023-03-11T14:12:41.469Z,50.875519
2023-03-11T14:13:41.470Z,50.875519
2023-03-11T14:14:41.450Z,50.875519
2023-03-11T14:15:41.434Z,50.875519
2023-03-11T14:16:41.462Z,50.875519
2023-03-11T14:17:41.409Z,50.875519
2023-03-11T14:18:41.412Z,50.875519
2023-03-11T14:19:41.398Z,50.875519
2023-03-11T14:20:41.537Z,50.875519
2023-03-11T14:21:41.369Z,50.875286
2023-03-11T14:22:41.363Z,50.875378
2023-03-11T14:23:41.372Z,50.875347
2023-03-11T14:24:41.342Z,50.875595
2023-03-11T14:25:41.334Z,50.875416
2023-03-11T14:26:41.320Z,50.875420
2023-03-11T14:27:41.317Z,50.875404
2023-03-11T14:28:41.323Z,50.875389
2023-03-11T14:29:41.295Z,50.875324
2023-03-11T14:30:41.279Z,50.875214
2023-03-11T14:31:41.349Z,50.875465
2023-03-11T14:32:41.315Z,50.875355
2023-03-11T14:33:41.260Z,50.875271
2023-03-11T14:34:41.276Z,50.875294
2023-03-11T14:35:41.247Z,50.875420
2023-03-11T14:36:41.228Z,50.875389
2023-03-11T14:37:41.208Z,50.875313
2023-03-11T14:38:41.215Z,50.875233
2023-03-11T14:39:41.187Z,50.875336
2023-03-11T14:40:41.184Z,50.875401
2023-03-11T14:41:41.180Z,50.875351
2023-03-11T14:42:41.173Z,50.875179
2023-03-11T14:43:41.163Z,50.875313
2023-03-11T14:44:41.141Z,50.875359
2023-03-11T14:45:41.153Z,50.875362
2023-03-11T14:46:42.738Z,50.875008
2023-03-11T14:47:41.112Z,50.873943
2023-03-11T14:48:41.114Z,50.875164
2023-03-11T14:49:41.090Z,50.875275
2023-03-11T14:50:41.083Z,50.875141
2023-03-11T14:51:41.075Z,50.875126
2023-03-11T14:52:41.080Z,50.875359
2023-03-11T14:53:41.068Z,50.875385
2023-03-11T14:54:41.039Z,50.875431
2023-03-11T14:55:41.044Z,50.875336
2023-03-11T14:56:41.020Z,50.875217
2023-03-11T14:57:41.008Z,50.875259
2023-03-11T14:58:41.007Z,50.875340
2023-03-11T14:59:40.987Z,50.875397
2023-03-11T15:00:40.978Z,50.875397